Time;durP1;ratioP1;P1;durP2;ratioP2;P2;SDS_P1;SDS_P2;PMS_P1;PMS_P2;Temp;Humidity;BMP_temperature;BMP_pressure;BME280_temperature;BME280_humidity;BME280_pressure;Samples;Min_cycle;Max_cycle;Signal;HPM_P1;HPM_P2
2021/04/26 00:00:24;;;;;;;5.23;2.17;;;8.90;42.20;;;9.58;35.50;97895.81;4947673;29;20055;-58
2021/04/26 00:02:54;;;;;;;3.37;2.27;;;8.90;42.30;;;9.56;35.50;97897.78;4946309;29;20073;-58
2021/04/26 00:05:22;;;;;;;7.20;2.40;;;8.80;42.20;;;9.51;35.40;97894.72;4947326;29;20066;-58
2021/04/26 00:07:50;;;;;;;8.10;2.30;;;8.80;42.50;;;9.46;35.60;97884.53;4930088;29;20226;-58
2021/04/26 00:10:18;;;;;;;4.77;2.10;;;8.80;42.50;;;9.43;35.76;97881.34;4947659;29;20071;-58
2021/04/26 00:12:46;;;;;;;5.30;2.00;;;8.80;42.40;;;9.40;35.64;97885.13;4948001;29;20062;-58
2021/04/26 00:15:24;;;;;;;2.87;2.07;;;8.70;42.80;;;9.37;35.66;97876.63;4947233;29;20059;-58
2021/04/26 00:17:53;;;;;;;5.17;2.20;;;8.60;43.10;;;9.32;35.90;97870.91;4945967;29;20063;-58
2021/04/26 00:20:27;;;;;;;3.27;2.10;;;8.60;43.00;;;9.29;35.93;97872.03;4946977;29;20051;-58
2021/04/26 00:22:59;;;;;;;3.75;2.45;;;8.60;43.10;;;9.25;35.97;97868.84;4945386;29;20051;-58
2021/04/26 00:25:29;;;;;;;4.90;2.00;;;8.60;43.00;;;9.22;36.20;97863.81;4944829;29;20122;-58
2021/04/26 00:27:59;;;;;;;4.70;2.03;;;8.60;43.00;;;9.22;36.03;97860.31;4946660;29;20087;-58
2021/04/26 00:30:28;;;;;;;3.70;2.47;;;8.60;43.10;;;9.19;35.87;97853.50;4946623;29;20063;-58
2021/04/26 00:32:56;;;;;;;5.70;2.13;;;8.50;43.30;;;9.18;36.53;97849.16;4942976;28;20063;-58
2021/04/26 00:35:25;;;;;;;4.73;2.33;;;8.50;43.60;;;9.15;36.28;97852.13;4946794;29;20065;-58
2021/04/26 00:37:54;;;;;;;5.73;2.63;;;8.40;43.60;;;9.11;36.49;97842.78;4944494;29;20107;-58
2021/04/26 00:40:24;;;;;;;3.70;2.07;;;8.40;44.00;;;9.07;36.76;97844.88;4946364;29;20329;-57
2021/04/26 00:42:52;;;;;;;5.53;2.63;;;8.30;44.30;;;9.04;36.77;97842.50;4939053;29;20059;-58
2021/04/26 00:45:24;;;;;;;7.77;2.43;;;8.30;44.50;;;9.00;36.61;97840.31;4945347;29;20053;-58
2021/04/26 00:47:53;;;;;;;3.60;2.60;;;8.20;44.50;;;8.98;36.75;97839.63;4939165;28;20238;-58
2021/04/26 00:50:27;;;;;;;6.40;3.27;;;8.20;44.50;;;8.93;36.86;97828.59;4944151;29;20067;-58
2021/04/26 00:52:56;;;;;;;4.22;2.95;;;8.20;45.20;;;8.88;37.22;97829.03;4945647;29;20260;-58
2021/04/26 00:55:28;;;;;;;8.47;2.30;;;8.10;44.90;;;8.84;36.61;97822.31;4945065;29;20055;-58
2021/04/26 00:57:56;;;;;;;3.60;2.50;;;8.10;45.40;;;8.80;37.19;97819.16;4945661;29;20063;-59
2021/04/26 01:00:28;;;;;;;5.50;2.20;;;8.00;45.00;;;8.75;37.21;97817.91;4947851;29;20043;-58
2021/04/26 01:02:57;;;;;;;3.23;2.03;;;8.00;45.30;;;8.73;37.43;97817.22;4945843;29;20543;-58
2021/04/26 01:05:29;;;;;;;3.83;1.97;;;7.90;45.30;;;8.71;37.23;97803.25;4946766;29;20338;-58
2021/04/26 01:07:58;;;;;;;4.20;2.97;;;7.90;45.50;;;8.69;37.39;97798.09;4945389;29;20073;-58
2021/04/26 01:10:46;;;;;;;2.77;2.03;;;7.90;45.40;;;8.66;37.87;97791.22;4946622;29;20065;-58
2021/04/26 01:13:54;;;;;;;5.10;2.17;;;7.90;45.30;;;8.66;37.83;97787.75;4945110;29;20073;-59
2021/04/26 01:16:30;;;;;;;3.33;1.90;;;7.90;47.00;;;8.63;37.74;97788.06;4945036;29;20668;-58
2021/04/26 01:19:25;;;;;;;4.17;2.07;;;7.80;46.00;;;8.58;37.64;97782.34;4926545;29;20257;-58
2021/04/26 01:22:33;;;;;;;4.20;2.50;;;7.80;46.30;;;8.53;38.05;97776.63;4922131;29;20055;-56
2021/04/26 01:25:20;;;;;;;7.10;2.30;;;7.80;47.60;;;8.48;37.74;97779.72;4946661;29;20077;-55
2021/04/26 01:28:19;;;;;;;5.03;2.20;;;7.70;47.30;;;8.40;38.12;97771.63;4945084;29;20051;-57
2021/04/26 01:31:13;;;;;;;8.23;2.60;;;7.60;48.30;;;8.36;38.45;97772.91;4947262;29;20391;-58
2021/04/26 01:33:51;;;;;;;2.33;1.77;;;7.60;48.30;;;8.32;38.74;97767.03;4926894;29;20274;-58
2021/04/26 01:36:26;;;;;;;3.73;2.00;;;7.50;47.30;;;8.26;38.29;97767.63;4926146;29;20058;-57
2021/04/26 01:38:59;;;;;;;3.77;2.30;;;7.40;47.30;;;8.23;38.36;97765.25;4946276;29;20073;-58
2021/04/26 01:41:30;;;;;;;3.00;2.17;;;7.40;47.10;;;8.19;38.70;97772.63;4942994;29;20060;-58
2021/04/26 01:44:03;;;;;;;3.40;2.13;;;7.40;47.20;;;8.16;38.39;97769.44;4947494;29;20051;-58
2021/04/26 01:46:32;;;;;;;5.07;2.40;;;7.40;47.40;;;8.13;38.28;97765.25;4945801;29;20047;-58
2021/04/26 01:49:02;;;;;;;3.93;2.20;;;7.30;47.30;;;8.08;38.96;97770.16;4946887;28;20051;-58
2021/04/26 01:51:32;;;;;;;5.40;2.33;;;7.30;48.00;;;8.04;39.02;97766.94;4946703;29;20361;-58
2021/04/26 01:54:03;;;;;;;5.40;2.80;;;7.30;47.50;;;8.02;39.37;97760.13;4926789;29;20364;-58
2021/04/26 01:56:35;;;;;;;5.33;2.60;;;7.20;47.50;;;8.04;38.75;97763.47;4926769;29;20066;-58
2021/04/26 01:59:09;;;;;;;8.13;2.63;;;7.30;48.30;;;8.01;39.21;97761.94;4926562;29;20338;-58
2021/04/26 02:01:38;;;;;;;3.63;2.30;;;7.20;47.90;;;7.99;39.14;97755.13;4932220;29;20268;-58
2021/04/26 02:04:08;;;;;;;3.57;2.23;;;7.20;47.90;;;7.97;39.06;97762.34;4945279;29;20061;-58
2021/04/26 02:07:01;;;;;;;4.67;2.37;;;7.20;48.20;;;7.93;39.33;97760.97;4925985;29;20615;-57
2021/04/26 02:09:38;;;;;;;6.57;2.80;;;7.10;48.30;;;7.90;39.26;97770.03;4953324;28;20057;-58
2021/04/26 02:12:15;;;;;;;5.87;3.30;;;7.10;48.30;;;7.88;39.65;97767.53;4930637;29;20074;-58
2021/04/26 02:14:46;;;;;;;4.50;2.67;;;7.10;48.90;;;7.85;39.13;97767.81;4932121;29;20051;-58
2021/04/26 02:17:16;;;;;;;4.27;3.00;;;7.10;48.60;;;7.80;39.51;97772.69;4927587;29;20632;-58
2021/04/26 02:19:46;;;;;;;4.53;2.93;;;7.00;48.60;;;7.76;40.35;97773.97;4948764;29;20206;-56
2021/04/26 02:22:16;;;;;;;3.97;2.67;;;6.90;49.10;;;7.71;39.70;97776.19;4929195;29;20068;-58
2021/04/26 02:24:55;;;;;;;5.87;2.33;;;6.90;49.60;;;7.66;39.94;97779.25;4928406;29;20064;-58
2021/04/26 02:27:26;;;;;;;5.00;2.60;;;6.80;49.50;;;7.64;40.67;97781.22;4947235;29;20061;-58
2021/04/26 02:29:54;;;;;;;5.23;2.60;;;6.90;50.00;;;7.64;40.41;97775.09;4932184;29;20066;-57
2021/04/26 02:32:29;;;;;;;4.23;2.93;;;6.90;49.40;;;7.64;40.20;97775.09;4949936;29;20055;-58
2021/04/26 02:35:41;;;;;;;5.40;3.43;;;7.00;49.80;;;7.64;40.45;97775.91;4899378;29;20246;-58
2021/04/26 02:38:25;;;;;;;6.07;3.23;;;6.90;49.80;;;7.62;40.28;97767.28;4940608;29;20472;-58
2021/04/26 02:41:13;;;;;;;5.03;3.17;;;6.90;50.80;;;7.60;40.83;97769.22;4940807;29;20063;-57
2021/04/26 02:43:46;;;;;;;5.63;3.00;;;6.90;50.70;;;7.59;40.40;97770.19;4949287;29;20048;-58
2021/04/26 02:46:16;;;;;;;5.17;2.87;;;6.90;49.80;;;7.58;39.96;97763.22;4942211;29;20054;-57
2021/04/26 02:48:46;;;;;;;7.87;3.63;;;6.90;49.60;;;7.59;41.24;97764.88;4947324;29;20241;-57
2021/04/26 02:51:17;;;;;;;5.90;2.70;;;6.90;49.80;;;7.58;40.63;97757.94;4942878;29;20059;-58
2021/04/26 02:53:46;;;;;;;4.13;2.47;;;6.90;49.80;;;7.56;40.51;97748.44;4947141;29;20055;-58
2021/04/26 02:56:16;;;;;;;6.40;2.90;;;6.90;49.60;;;7.55;40.41;97750.25;4947663;29;20294;-58
2021/04/26 02:58:53;;;;;;;5.35;2.92;;;6.90;50.10;;;7.52;41.15;97739.91;4948975;29;20244;-57
2021/04/26 03:01:27;;;;;;;6.37;2.90;;;6.80;50.70;;;7.51;41.30;97737.44;4944180;29;20348;-58
2021/04/26 03:04:15;;;;;;;4.87;2.73;;;6.80;50.40;;;7.48;41.38;97733.22;4942848;29;20085;-58
2021/04/26 03:06:48;;;;;;;4.40;3.77;;;6.80;50.20;;;7.46;41.38;97732.53;4946085;29;20148;-58
2021/04/26 03:09:36;;;;;;;7.27;3.27;;;6.70;50.70;;;7.44;41.60;97723.91;4947708;29;20062;-58
2021/04/26 03:12:07;;;;;;;6.47;4.07;;;6.70;50.50;;;7.42;40.94;97720.56;4940619;28;20062;-56
2021/04/26 03:14:45;;;;;;;7.13;3.60;;;6.70;50.70;;;7.39;41.72;97716.38;4949007;29;20329;-56
2021/04/26 03:17:14;;;;;;;8.10;3.10;;;6.70;51.10;;;7.32;42.17;97709.13;4948040;29;20059;-58
2021/04/26 03:19:48;;;;;;;5.83;3.23;;;6.50;51.70;;;7.26;41.98;97705.22;4945906;29;20069;-57
2021/04/26 03:22:18;;;;;;;5.53;3.10;;;6.40;51.80;;;7.21;42.33;97710.94;4943547;29;20050;-58
2021/04/26 03:24:48;;;;;;;7.50;3.37;;;6.50;52.40;;;7.20;42.28;97703.97;4946570;29;20061;-58
2021/04/26 03:27:21;;;;;;;10.13;3.73;;;6.40;51.90;;;7.19;41.99;97704.94;4947918;29;20078;-58
2021/04/26 03:29:52;;;;;;;7.97;3.67;;;6.40;51.80;;;7.18;41.83;97705.91;4940012;29;20412;-58
2021/04/26 03:32:27;;;;;;;6.50;3.30;;;6.40;52.20;;;7.15;42.36;97708.00;4928435;29;20288;-58
2021/04/26 03:35:07;;;;;;;8.63;3.40;;;6.30;52.00;;;7.10;42.65;97711.06;4927229;29;20058;-58
2021/04/26 03:37:47;;;;;;;7.03;4.20;;;6.20;52.00;;;7.04;42.16;97707.16;4948106;29;20043;-58
2021/04/26 03:40:25;;;;;;;5.70;3.27;;;6.20;52.30;;;6.99;42.73;97701.44;4925126;29;20055;-58
2021/04/26 03:43:01;;;;;;;6.37;3.80;;;6.20;53.00;;;6.97;43.03;97699.91;4946690;29;20059;-58
2021/04/26 03:45:50;;;;;;;6.33;3.57;;;6.20;53.70;;;6.96;43.12;97703.50;4946579;29;20059;-57
2021/04/26 03:48:39;;;;;;;6.63;3.40;;;6.20;52.20;;;6.97;42.41;97708.66;4925315;29;20057;-58
2021/04/26 03:51:12;;;;;;;5.13;3.22;;;6.30;52.10;;;6.97;42.86;97713.13;4942385;29;20063;-57
2021/04/26 03:54:12;;;;;;;6.73;3.50;;;6.20;52.20;;;6.99;43.17;97705.88;4946397;29;20061;-58
2021/04/26 03:56:42;;;;;;;8.00;4.60;;;6.20;52.00;;;6.97;42.27;97708.66;4947789;29;20077;-58
2021/04/26 03:59:14;;;;;;;8.03;3.70;;;6.20;52.30;;;6.94;42.51;97702.81;4946298;29;20071;-57
2021/04/26 04:01:43;;;;;;;7.00;3.57;;;6.20;52.20;;;6.88;42.16;97706.84;4947227;29;20257;-57
2021/04/26 04:04:11;;;;;;;8.80;4.03;;;6.10;52.30;;;6.84;43.20;97708.09;4940251;29;20062;-60
2021/04/26 04:07:11;;;;;;;6.40;3.77;;;6.10;52.60;;;6.81;43.12;97705.72;4945195;29;20053;-58
2021/04/26 04:09:57;;;;;;;13.90;5.00;;;6.10;52.70;;;6.78;42.90;97706.81;4951306;28;20224;-59
2021/04/26 04:12:58;;;;;;;7.37;4.73;;;6.00;52.90;;;6.76;43.11;97711.41;4919050;28;20252;-60
2021/04/26 04:15:26;;;;;;;8.57;3.90;;;6.00;53.10;;;6.72;43.17;97712.66;4943290;29;20099;-59
2021/04/26 04:17:55;;;;;;;6.37;4.37;;;6.00;53.20;;;6.69;42.96;97713.78;4947958;29;20058;-59
2021/04/26 04:20:27;;;;;;;6.57;4.30;;;5.90;53.50;;;6.65;43.13;97709.72;4944142;29;20226;-60
2021/04/26 04:22:55;;;;;;;8.43;4.20;;;5.90;53.90;;;6.63;43.76;97711.66;4946021;28;20224;-51
2021/04/26 04:25:23;;;;;;;7.03;3.50;;;5.90;54.30;;;6.60;44.21;97708.44;4942137;29;20356;-50
2021/04/26 04:27:50;;;;;;;6.20;4.07;;;5.80;53.90;;;6.60;43.81;97705.81;4947022;28;20059;-48
2021/04/26 04:30:19;;;;;;;10.73;4.90;;;5.80;53.90;;;6.59;43.88;97704.13;4948846;28;20065;-50
2021/04/26 04:33:06;;;;;;;8.00;4.10;;;5.80;53.90;;;6.57;43.52;97706.06;4887431;29;20376;-50
2021/04/26 04:35:34;;;;;;;6.77;4.40;;;5.80;54.10;;;6.55;43.85;97705.38;4905854;29;20122;-52
2021/04/26 04:38:21;;;;;;;8.47;4.03;;;5.70;53.50;;;6.49;43.48;97704.09;4910040;29;20062;-51
2021/04/26 04:41:07;;;;;;;8.03;4.43;;;5.70;53.70;;;6.45;43.35;97707.97;4913029;29;20058;-49
2021/04/26 04:43:38;;;;;;;9.47;5.43;;;5.70;53.90;;;6.44;43.75;97707.16;4890792;29;20066;-51
2021/04/26 04:46:07;;;;;;;8.47;5.50;;;5.70;54.20;;;6.44;43.95;97707.16;4908474;29;20060;-49
2021/04/26 04:48:35;;;;;;;6.90;4.80;;;5.70;53.90;;;6.46;44.61;97697.28;4908857;29;20044;-48
2021/04/26 04:51:05;;;;;;;7.10;4.27;;;5.80;54.30;;;6.50;44.17;97705.78;4907628;29;20086;-50
2021/04/26 04:53:34;;;;;;;8.77;4.37;;;5.80;54.20;;;6.53;43.79;97696.72;4909808;29;20048;-49
2021/04/26 04:56:03;;;;;;;10.63;5.33;;;5.90;54.00;;;6.55;44.27;97700.91;4907602;29;20052;-51
2021/04/26 04:58:36;;;;;;;7.90;5.00;;;5.90;54.10;;;6.57;44.63;97706.94;4908153;29;20066;-51
2021/04/26 05:01:05;;;;;;;9.00;3.70;;;5.90;54.20;;;6.57;44.20;97703.41;4909530;29;20062;-49
2021/04/26 05:03:51;;;;;;;7.90;4.67;;;5.90;54.10;;;6.58;44.33;97703.28;4911190;29;20058;-49
2021/04/26 05:06:38;;;;;;;9.50;4.50;;;5.90;54.30;;;6.57;44.51;97700.78;4909015;29;20054;-52
2021/04/26 05:09:25;;;;;;;6.10;3.73;;;5.80;54.70;;;6.53;45.06;97702.00;4912190;29;20047;-49
2021/04/26 05:12:11;;;;;;;5.90;4.20;;;5.80;54.80;;;6.53;44.80;97694.91;4911932;29;20062;-49
2021/04/26 05:15:03;;;;;;;9.47;4.30;;;5.90;54.70;;;6.56;45.23;97691.19;4888074;29;20068;-49
2021/04/26 05:17:32;;;;;;;8.37;4.20;;;5.90;54.70;;;6.57;44.69;97695.47;4906279;29;20062;-49
2021/04/26 05:20:01;;;;;;;7.80;4.43;;;5.90;55.10;;;6.55;45.54;97700.06;4907409;29;20054;-49
2021/04/26 05:22:31;;;;;;;7.70;4.80;;;5.90;55.00;;;6.57;45.19;97701.63;4907243;29;20056;-53
2021/04/26 05:25:05;;;;;;;9.30;5.07;;;5.90;55.10;;;6.59;45.38;97704.13;4908318;29;20051;-54
2021/04/26 05:27:33;;;;;;;10.03;4.83;;;5.90;55.20;;;6.60;44.74;97705.81;4906890;29;20226;-51
2021/04/26 05:30:05;;;;;;;7.13;4.13;;;5.90;55.00;;;6.64;45.28;97709.84;4908017;29;20056;-48
2021/04/26 05:32:34;;;;;;;8.23;5.17;;;6.00;54.90;;;6.65;45.24;97711.50;4907263;29;20089;-49
2021/04/26 05:35:08;;;;;;;;;;;6.10;55.10;;;6.64;44.90;97707.22;4910396;29;20068;-51
2021/04/26 05:37:36;;;;;;;8.93;4.27;;;6.10;57.10;;;6.70;44.87;97720.72;4895469;29;20093;-52
2021/04/26 05:40:05;;;;;;;10.63;4.80;;;6.10;54.70;;;6.73;45.02;97724.06;4912568;29;20055;-52
2021/04/26 05:42:35;;;;;;;8.93;4.73;;;6.20;54.60;;;6.78;45.33;97719.22;4910855;29;20066;-53
2021/04/26 05:45:03;;;;;;;8.27;4.43;;;6.30;54.30;;;6.80;44.69;97706.69;4911910;29;20282;-49
2021/04/26 05:47:50;;;;;;;9.00;4.90;;;6.30;53.70;;;6.82;44.97;97712.69;4913247;29;20047;-51
2021/04/26 05:50:18;;;;;;;7.33;4.17;;;6.40;53.80;;;6.87;45.32;97718.41;4911054;29;20056;-51
2021/04/26 05:52:46;;;;;;;6.47;4.30;;;6.40;53.50;;;6.89;45.22;97711.16;4910869;29;20059;-50
2021/04/26 05:55:13;;;;;;;10.37;4.70;;;6.40;53.50;;;6.92;45.03;97712.69;4900324;29;20063;-53
2021/04/26 05:57:41;;;;;;;6.53;4.23;;;6.50;53.20;;;6.98;44.82;97712.16;4892964;29;20060;-56
2021/04/26 06:00:10;;;;;;;6.03;3.77;;;6.50;53.20;;;7.03;45.14;97718.69;4892043;29;20075;-53
2021/04/26 06:02:42;;;;;;;8.40;4.40;;;6.70;53.40;;;7.08;44.98;97727.09;4890665;29;20387;-53
2021/04/26 06:05:10;;;;;;;7.30;4.60;;;6.70;53.90;;;7.13;44.31;97718.72;4877242;29;20075;-54
2021/04/26 06:07:39;;;;;;;10.73;4.70;;;6.70;52.80;;;7.15;44.47;97716.75;4893612;29;20073;-54
2021/04/26 06:10:08;;;;;;;6.70;3.87;;;6.70;52.60;;;7.18;44.22;97727.09;4891746;29;20052;-55
2021/04/26 06:12:36;;;;;;;6.57;4.07;;;6.80;52.20;;;7.22;44.01;97720.53;4890108;29;20067;-56
2021/04/26 06:15:06;;;;;;;10.80;5.00;;;6.80;52.20;;;7.23;44.54;97719.59;4891261;29;20066;-54
2021/04/26 06:17:34;;;;;;;11.30;4.60;;;6.80;52.20;;;7.26;44.44;97721.09;4889786;29;20056;-56
2021/04/26 06:20:04;;;;;;;5.57;4.43;;;6.90;52.30;;;7.33;44.18;97719.59;4891607;29;20782;-51
2021/04/26 06:22:32;;;;;;;8.03;4.87;;;7.00;52.00;;;7.39;44.56;97721.69;4890856;29;20062;-55
2021/04/26 06:25:01;;;;;;;6.77;4.20;;;7.00;51.80;;;7.45;44.20;97728.22;4891035;29;20052;-52
2021/04/26 06:27:29;;;;;;;5.87;4.17;;;7.10;51.30;;;7.51;44.13;97722.38;4892008;29;20525;-54
2021/04/26 06:29:57;;;;;;;8.80;4.03;;;7.20;50.90;;;7.54;43.11;97722.09;4890009;29;20098;-51
2021/04/26 06:32:25;;;;;;;5.33;3.73;;;7.20;50.90;;;7.61;43.29;97731.13;4892366;29;20588;-50
2021/04/26 06:34:53;;;;;;;6.67;3.90;;;7.30;50.80;;;7.65;43.80;97729.06;4891870;29;20065;-52
2021/04/26 06:37:21;;;;;;;6.03;3.93;;;7.40;50.60;;;7.67;43.09;97727.09;4892234;29;20052;-54
2021/04/26 06:39:50;;;;;;;5.43;4.10;;;7.40;50.40;;;7.70;43.12;97726.81;4891057;29;20082;-56
2021/04/26 06:42:18;;;;;;;6.90;3.87;;;7.40;50.50;;;7.74;43.62;97714.97;4890534;29;20238;-53
2021/04/26 06:44:46;;;;;;;7.17;3.50;;;7.40;50.50;;;7.73;43.43;97723.88;4892667;29;20057;-53
2021/04/26 06:47:14;;;;;;;5.97;4.60;;;7.50;50.00;;;7.73;42.98;97718.56;4891119;29;20044;-57
2021/04/26 06:49:42;;;;;;;8.20;5.20;;;7.60;49.80;;;7.78;43.24;97720.81;4891472;29;20053;-54
2021/04/26 06:52:11;;;;;;;8.50;4.93;;;7.70;50.00;;;7.81;43.42;97720.53;4891765;29;20052;-56
2021/04/26 06:54:39;;;;;;;7.83;4.57;;;7.70;49.70;;;7.82;43.20;97720.38;4889910;29;20067;-56
2021/04/26 06:57:07;;;;;;;5.77;3.67;;;7.70;49.60;;;7.83;43.02;97724.72;4890620;29;20381;-55
2021/04/26 06:59:35;;;;;;;6.97;4.73;;;7.70;49.50;;;7.87;43.01;97722.59;4891246;29;20060;-55
2021/04/26 07:02:04;;;;;;;5.00;3.70;;;7.80;49.60;;;7.94;43.46;97723.72;4891841;29;20053;-54
2021/04/26 07:04:32;;;;;;;6.37;4.20;;;7.80;49.30;;;8.03;42.73;97722.84;4888920;29;20077;-52
2021/04/26 07:07:01;;;;;;;7.43;4.27;;;7.90;49.20;;;8.08;42.65;97725.06;4890512;29;20246;-53
2021/04/26 07:09:30;;;;;;;7.37;4.83;;;8.00;48.70;;;8.11;42.84;97721.31;4890488;29;20084;-50
2021/04/26 07:11:58;;;;;;;8.33;4.40;;;8.00;48.50;;;8.18;42.41;97714.44;4893122;29;20082;-50
2021/04/26 07:14:26;;;;;;;6.20;4.53;;;8.00;48.40;;;8.21;42.60;97711.50;4890926;29;20056;-51
2021/04/26 07:16:55;;;;;;;6.73;4.57;;;8.10;48.50;;;8.26;41.74;97714.56;4891215;29;20067;-50
2021/04/26 07:19:23;;;;;;;7.27;4.07;;;8.10;48.30;;;8.29;42.41;97704.47;4891463;29;20066;-54
2021/04/26 07:21:51;;;;;;;6.33;4.67;;;8.20;48.50;;;8.37;42.43;97702.94;4891397;29;20261;-48
2021/04/26 07:24:19;;;;;;;7.80;4.70;;;8.20;48.30;;;8.43;41.68;97697.06;4890356;29;20213;-54
2021/04/26 07:26:47;;;;;;;8.33;4.80;;;8.30;48.40;;;8.47;41.71;97704.59;4891482;29;20052;-54
2021/04/26 07:29:15;;;;;;;6.57;3.93;;;8.30;48.10;;;8.52;42.27;97709.47;4891689;29;20068;-54
2021/04/26 07:31:44;;;;;;;9.17;4.60;;;8.40;48.00;;;8.57;41.77;97701.03;4891633;29;20063;-49
2021/04/26 07:34:12;;;;;;;6.13;3.87;;;8.50;48.10;;;8.62;42.12;97699.63;4891052;29;20064;-51
2021/04/26 07:36:40;;;;;;;8.33;5.00;;;8.60;47.80;;;8.67;42.00;97701.84;4889025;29;20078;-49
2021/04/26 07:39:09;;;;;;;9.63;5.53;;;8.60;47.90;;;8.73;41.61;97697.78;4891782;29;20697;-50
2021/04/26 07:41:37;;;;;;;8.00;4.83;;;8.60;47.70;;;8.78;41.85;97698.16;4891456;29;20046;-49
2021/04/26 07:44:07;;;;;;;6.50;4.00;;;8.70;47.70;;;8.81;41.45;97689.91;4893370;29;20056;-52
2021/04/26 07:46:35;;;;;;;7.30;4.63;;;8.70;47.60;;;8.84;41.32;97692.22;4911257;29;20284;-48
2021/04/26 07:49:03;;;;;;;10.83;5.13;;;8.70;47.70;;;8.90;41.51;97686.34;4913358;29;20056;-59
2021/04/26 07:51:31;;;;;;;7.83;4.93;;;8.70;47.40;;;8.94;41.50;97686.91;4919840;29;20054;-50
2021/04/26 07:53:59;;;;;;;7.83;4.83;;;8.80;47.10;;;8.96;41.39;97685.75;4924072;29;20060;-50
2021/04/26 07:56:27;;;;;;;8.23;4.60;;;8.80;47.10;;;9.01;41.08;97691.44;4924331;29;20085;-50
2021/04/26 07:58:55;;;;;;;19.63;4.13;;;8.90;47.20;;;9.07;40.93;97684.69;4911186;29;20272;-51
2021/04/26 08:01:23;;;;;;;6.63;5.67;;;9.00;47.00;;;9.13;41.66;97680.59;4912945;29;20048;-48
2021/04/26 08:03:51;;;;;;;7.80;4.47;;;9.10;47.10;;;9.16;40.72;97678.47;4907160;29;20052;-49
2021/04/26 08:06:20;;;;;;;9.00;4.77;;;9.10;46.80;;;9.22;41.22;97674.38;4890611;29;20045;-52
2021/04/26 08:08:48;;;;;;;6.43;4.83;;;9.10;46.80;;;9.24;40.92;97677.72;4914805;29;20045;-52
2021/04/26 08:21:02;;;;;;;7.80;4.30;;;9.20;45.90;;;9.36;40.61;97680.97;4889692;29;20046;-49
2021/04/26 08:23:30;;;;;;;7.83;4.73;;;9.30;46.50;;;9.41;40.77;97671.56;4902708;29;20046;-49
2021/04/26 08:25:58;;;;;;;7.93;4.63;;;9.30;47.30;;;9.45;40.96;97672.09;4909169;29;20078;-48
2021/04/26 08:28:27;;;;;;;9.83;5.60;;;9.40;46.70;;;9.51;40.71;97676.78;4913660;29;20048;-49
2021/04/26 08:30:55;;;;;;;9.40;5.00;;;9.40;46.40;;;9.53;40.36;97666.00;4903438;29;20242;-48
2021/04/26 08:33:23;;;;;;;8.17;5.13;;;9.50;46.40;;;9.58;40.56;97669.88;4903763;29;20052;-47
2021/04/26 08:35:51;;;;;;;8.07;4.93;;;9.50;46.40;;;9.66;40.73;97661.13;4899634;29;20052;-50
2021/04/26 08:38:19;;;;;;;9.47;4.67;;;9.60;46.40;;;9.74;40.59;97668.31;4908830;29;20278;-52
2021/04/26 08:40:47;;;;;;;8.83;4.77;;;9.70;46.30;;;9.78;40.52;97667.84;4915656;29;20064;-51
2021/04/26 08:43:18;;;;;;;8.10;5.27;;;9.80;46.10;;;9.83;40.30;97667.41;4906466;29;20361;-52
2021/04/26 08:45:46;;;;;;;6.77;4.87;;;9.80;45.80;;;9.83;39.92;97664.75;4911612;29;20060;-50
2021/04/26 08:48:14;;;;;;;9.37;4.97;;;9.80;45.70;;;9.84;40.33;97666.41;4916022;29;20230;-50
2021/04/26 08:50:42;;;;;;;8.40;4.83;;;9.80;46.00;;;9.91;40.40;97666.63;4923368;29;20250;-50
2021/04/26 08:53:10;;;;;;;8.33;5.17;;;9.90;46.10;;;9.97;40.55;97666.00;4923473;29;20068;-48
2021/04/26 08:55:39;;;;;;;10.93;5.83;;;10.00;46.20;;;9.97;40.04;97663.34;4907147;29;20347;-51
2021/04/26 08:58:08;;;;;;;8.80;5.17;;;10.00;45.80;;;9.99;40.11;97653.38;4909112;29;20373;-49
2021/04/26 09:00:36;;;;;;;11.67;6.27;;;10.00;45.90;;;10.03;40.12;97663.53;4904514;29;20068;-47
2021/04/26 09:03:06;;;;;;;10.20;5.47;;;10.00;45.30;;;10.06;40.21;97659.72;4905661;29;20250;-51
2021/04/26 09:05:46;;;;;;;6.70;4.93;;;10.00;46.20;;;10.10;39.50;97654.91;4904455;29;20060;-49
2021/04/26 09:08:23;;;;;;;6.10;4.60;;;10.10;44.80;;;10.14;39.92;97664.25;4903409;29;20059;-50
2021/04/26 09:10:53;;;;;;;11.87;6.00;;;10.20;45.40;;;10.19;40.05;97664.63;4906655;29;20055;-48
2021/04/26 09:13:33;;;;;;;8.80;5.33;;;10.20;45.60;;;10.28;39.76;97666.31;4909110;29;20052;-47
2021/04/26 09:16:30;;;;;;;8.37;4.70;;;10.30;45.40;;;10.34;39.28;97665.72;4909066;29;20067;-47
2021/04/26 09:19:01;;;;;;;7.37;4.70;;;10.40;44.40;;;10.38;39.85;97660.91;4908650;29;20058;-47
2021/04/26 09:21:43;;;;;;;8.90;4.73;;;10.50;45.20;;;10.47;39.39;97651.13;4908971;29;20052;-48
2021/04/26 09:24:37;;;;;;;8.10;5.40;;;10.50;44.60;;;10.54;39.54;97658.31;4906914;29;20299;-49
2021/04/26 09:27:09;;;;;;;7.07;4.70;;;10.60;44.80;;;10.64;39.67;97647.53;4924637;29;20047;-46
2021/04/26 09:29:40;;;;;;;8.13;4.83;;;10.70;44.90;;;10.70;39.62;97649.56;4924933;29;20265;-47
2021/04/26 09:32:20;;;;;;;8.80;5.10;;;10.80;44.80;;;10.71;39.02;97643.22;4907167;29;20264;-50
2021/04/26 09:34:51;;;;;;;8.10;5.40;;;10.80;44.10;;;10.72;39.03;97646.72;4908107;29;20070;-47
2021/04/26 09:37:28;;;;;;;10.47;5.13;;;10.70;44.40;;;10.75;38.90;97643.75;4910434;29;20064;-47
2021/04/26 09:40:14;;;;;;;8.23;4.97;;;10.80;44.20;;;10.80;38.69;97646.78;4905041;29;20062;-48
2021/04/26 09:43:02;;;;;;;8.20;5.33;;;10.90;43.80;;;10.88;39.17;97646.78;4896102;29;20067;-47
2021/04/26 09:45:39;;;;;;;8.50;4.97;;;10.90;44.40;;;10.95;39.01;97642.47;4894371;29;20051;-47
2021/04/26 09:48:20;;;;;;;5.93;4.70;;;11.00;44.00;;;11.00;38.95;97637.47;4892418;29;20049;-48
2021/04/26 09:50:57;;;;;;;7.30;4.80;;;11.10;44.00;;;11.07;39.00;97632.34;4892841;29;20049;-46
2021/04/26 09:53:40;;;;;;;7.67;4.17;;;11.10;44.20;;;11.13;38.92;97634.34;4892802;29;20065;-48
2021/04/26 09:56:31;;;;;;;5.85;4.43;;;11.20;44.00;;;11.20;38.47;97627.31;4892287;29;20514;-47
2021/04/26 09:59:02;;;;;;;9.17;4.67;;;11.30;43.00;;;11.28;38.86;97633.66;4892218;29;20422;-48
2021/04/26 10:01:32;;;;;;;7.90;4.77;;;11.30;43.90;;;11.34;38.16;97631.19;4893859;29;20064;-46
2021/04/26 10:04:03;;;;;;;8.17;5.10;;;11.40;43.20;;;11.38;38.20;97623.66;4893662;29;20058;-46
2021/04/26 10:06:33;;;;;;;10.90;5.63;;;11.40;43.20;;;11.42;37.74;97628.50;4893072;29;20052;-46
2021/04/26 10:09:07;;;;;;;8.37;5.00;;;11.50;42.80;;;11.46;38.06;97625.50;4894515;29;20062;-46
2021/04/26 10:11:37;;;;;;;6.33;4.73;;;11.50;43.00;;;11.51;37.98;97628.50;4891827;29;20057;-45
2021/04/26 10:14:17;;;;;;;6.87;5.00;;;11.60;42.60;;;11.58;38.16;97629.50;4891620;29;20293;-48
2021/04/26 10:17:09;;;;;;;9.27;5.38;;;11.70;43.00;;;11.68;37.15;97613.34;4894796;29;20048;-47
2021/04/26 10:19:50;;;;;;;8.50;5.37;;;11.80;41.20;;;11.70;36.91;97620.16;4879232;29;20070;-49
2021/04/26 10:22:38;;;;;;;8.98;5.15;;;11.80;41.80;;;11.74;36.14;97613.47;4874193;29;20064;-46
2021/04/26 10:25:10;;;;;;;10.30;5.50;;;11.90;40.20;;;11.77;37.20;97613.16;4893765;29;20055;-48
2021/04/26 10:27:44;;;;;;;7.90;4.43;;;11.90;41.60;;;11.78;37.35;97612.13;4892437;29;20047;-46
2021/04/26 10:30:17;;;;;;;9.13;4.88;;;12.00;42.10;;;11.88;37.45;97603.13;4892096;29;20056;-48
2021/04/26 10:33:03;;;;;;;6.22;4.75;;;12.00;41.60;;;11.94;36.51;97611.31;4892021;29;20074;-46
2021/04/26 10:35:51;;;;;;;7.90;4.77;;;12.00;40.40;;;12.00;36.40;97607.13;4888930;29;20250;-46
2021/04/26 10:38:40;;;;;;;8.63;5.50;;;12.10;40.60;;;12.06;37.16;97609.13;4889795;29;20067;-47
2021/04/26 10:41:30;;;;;;;7.37;4.97;;;12.20;41.40;;;12.02;36.57;97603.28;4886517;29;20053;-46
2021/04/26 10:43:58;;;;;;;8.57;4.80;;;12.10;40.40;;;12.05;36.51;97598.63;4891363;29;20254;-46
2021/04/26 10:46:28;;;;;;;6.40;4.88;;;12.20;41.90;;;12.07;36.78;97588.59;4891625;29;20261;-46
2021/04/26 10:49:06;;;;;;;7.63;5.35;;;12.20;41.60;;;12.11;36.81;97584.56;4892194;29;20055;-46
2021/04/26 10:51:36;;;;;;;7.22;5.38;;;12.20;41.80;;;12.21;37.10;97575.38;4890922;29;20071;-46
2021/04/26 10:54:06;;;;;;;8.88;5.05;;;12.40;41.70;;;12.35;36.77;97583.66;4891895;29;20055;-46
2021/04/26 10:56:37;;;;;;;8.52;4.43;;;12.50;41.10;;;12.43;36.36;97577.44;4874465;29;20053;-46
2021/04/26 10:59:18;;;;;;;6.05;4.55;;;12.60;40.70;;;12.51;35.51;97572.06;4891703;29;20059;-49
2021/04/26 11:01:51;;;;;;;6.40;5.18;;;12.70;38.90;;;12.56;36.04;97561.66;4892261;29;20059;-47
2021/04/26 11:04:20;;;;;;;7.32;5.22;;;12.70;40.30;;;12.61;35.77;97562.81;4890670;29;20363;-50
2021/04/26 11:07:14;;;;;;;6.43;3.95;;;12.80;40.00;;;12.67;35.03;97550.59;4892105;29;20075;-48